createdAt,value
2022-12-06T00:02:18.461Z,63.81
2022-12-06T00:05:19.974Z,64.95
2022-12-06T00:08:21.550Z,64.76
2022-12-06T00:11:26.028Z,64.43
2022-12-06T00:14:28.004Z,64.41
2022-12-06T00:17:29.471Z,64.44
2022-12-06T00:20:30.963Z,63.99
2022-12-06T00:23:35.064Z,64.51
2022-12-06T00:26:40.848Z,64.51
2022-12-06T00:29:42.294Z,64.00
2022-12-06T00:32:43.811Z,64.76
2022-12-06T00:35:45.259Z,64.81
2022-12-06T00:38:47.478Z,64.61
2022-12-06T00:41:49.046Z,63.87
2022-12-06T00:44:50.494Z,64.45
2022-12-06T00:47:51.927Z,64.62
2022-12-06T00:50:53.784Z,64.49
2022-12-06T00:53:55.576Z,64.75
2022-12-06T00:56:57.131Z,64.88
2022-12-06T00:59:58.759Z,64.80
2022-12-06T01:03:00.679Z,65.33
2022-12-06T01:06:06.021Z,66.00
2022-12-06T01:09:10.284Z,65.84
2022-12-06T01:12:11.726Z,65.61
2022-12-06T01:15:13.330Z,65.98
2022-12-06T01:18:14.981Z,66.24
2022-12-06T01:21:18.945Z,66.06
2022-12-06T01:24:20.441Z,66.11
2022-12-06T01:27:22.077Z,66.62
2022-12-06T01:30:23.589Z,66.51
2022-12-06T01:33:25.169Z,66.57
2022-12-06T01:36:26.677Z,66.28
2022-12-06T01:39:28.192Z,66.15
2022-12-06T01:42:29.656Z,66.54
2022-12-06T01:45:31.678Z,65.87
2022-12-06T01:48:34.759Z,66.59
2022-12-06T01:51:37.311Z,65.78
2022-12-06T01:54:40.217Z,66.27
2022-12-06T01:57:41.698Z,65.39
2022-12-06T02:00:43.660Z,65.16
2022-12-06T02:03:48.053Z,64.87
2022-12-06T02:06:51.813Z,65.15
2022-12-06T02:09:54.769Z,64.89
2022-12-06T02:12:57.376Z,65.68
2022-12-06T02:16:24.141Z,65.61
2022-12-06T02:19:44.185Z,65.14
2022-12-06T02:23:03.902Z,65.24
2022-12-06T02:26:27.196Z,64.35
2022-12-06T02:29:49.103Z,64.27
2022-12-06T02:32:59.090Z,64.10
2022-12-06T02:36:22.418Z,64.06
2022-12-06T02:39:35.016Z,64.25
2022-12-06T02:42:47.387Z,64.22
2022-12-06T02:45:54.056Z,64.06
2022-12-06T02:48:58.319Z,63.61
2022-12-06T02:52:00.286Z,63.93
2022-12-06T02:55:03.010Z,63.75
2022-12-06T02:58:04.463Z,63.98
2022-12-06T03:01:38.278Z,63.99
2022-12-06T03:04:49.876Z,64.05
2022-12-06T03:07:52.697Z,64.01
2022-12-06T03:11:00.530Z,64.26
2022-12-06T03:14:14.630Z,64.03
2022-12-06T03:17:52.576Z,63.39
2022-12-06T03:20:58.403Z,64.06
2022-12-06T03:24:00.428Z,63.67
2022-12-06T03:27:05.925Z,64.12
2022-12-06T03:30:10.723Z,64.06
2022-12-06T03:33:13.396Z,63.91
2022-12-06T03:36:17.065Z,64.36
2022-12-06T03:39:29.191Z,63.68
2022-12-06T03:42:32.026Z,63.81
2022-12-06T03:45:41.646Z,63.65
2022-12-06T03:48:54.925Z,63.57
2022-12-06T03:51:56.412Z,63.21
2022-12-06T03:54:57.850Z,63.53
2022-12-06T03:57:59.407Z,62.99
2022-12-06T04:01:04.839Z,63.34
2022-12-06T04:04:06.572Z,63.50
2022-12-06T04:07:09.851Z,63.24
2022-12-06T04:10:11.551Z,63.40
2022-12-06T04:13:16.757Z,63.51
2022-12-06T04:16:39.559Z,63.91
2022-12-06T04:19:41.034Z,64.55
2022-12-06T04:23:01.160Z,64.69
2022-12-06T04:26:04.273Z,64.08
2022-12-06T04:29:24.574Z,63.60
2022-12-06T04:32:44.568Z,64.03
2022-12-06T04:36:04.212Z,64.08
2022-12-06T04:39:05.846Z,64.96
2022-12-06T04:42:26.029Z,65.23
2022-12-06T04:45:27.445Z,64.67
2022-12-06T04:48:28.871Z,64.29
2022-12-06T04:51:30.330Z,64.42
2022-12-06T04:54:31.881Z,64.82
2022-12-06T04:57:33.315Z,64.43
2022-12-06T05:00:34.844Z,64.36
2022-12-06T05:03:42.446Z,64.21
2022-12-06T05:06:46.941Z,64.67
2022-12-06T05:09:48.360Z,64.59
2022-12-06T05:12:49.785Z,64.51
2022-12-06T05:16:04.606Z,65.70
2022-12-06T05:19:06.167Z,64.88
2022-12-06T05:22:07.571Z,64.14
2022-12-06T05:25:09.332Z,64.68
2022-12-06T05:28:10.791Z,64.70
2022-12-06T05:31:13.034Z,64.37
2022-12-06T05:34:14.542Z,64.64
2022-12-06T05:37:16.173Z,64.21
2022-12-06T05:40:17.672Z,63.76
2022-12-06T05:43:19.091Z,64.32
2022-12-06T05:46:20.596Z,64.29
2022-12-06T05:49:22.196Z,63.44
2022-12-06T05:52:23.645Z,64.00
2022-12-06T05:55:25.697Z,64.19
2022-12-06T05:58:27.111Z,64.02
2022-12-06T06:01:28.804Z,64.01
2022-12-06T06:04:30.299Z,63.96
2022-12-06T06:07:31.863Z,63.84
2022-12-06T06:10:33.390Z,63.82
2022-12-06T06:13:34.896Z,63.53
2022-12-06T06:16:36.403Z,63.36
2022-12-06T06:19:38.003Z,63.03
2022-12-06T06:22:40.965Z,62.72
2022-12-06T06:25:42.473Z,62.97
2022-12-06T06:28:43.932Z,62.88
2022-12-06T06:31:45.589Z,63.27
2022-12-06T06:34:47.137Z,62.82
2022-12-06T06:37:48.578Z,63.23
2022-12-06T06:40:50.062Z,63.73
2022-12-06T06:43:51.525Z,63.51
2022-12-06T06:46:52.977Z,63.77
2022-12-06T06:49:54.429Z,64.04
2022-12-06T06:52:55.875Z,63.75
2022-12-06T06:55:57.697Z,64.37
2022-12-06T06:58:59.136Z,64.13
2022-12-06T07:02:00.628Z,64.72
2022-12-06T07:05:02.141Z,64.54
2022-12-06T07:08:04.172Z,64.73
2022-12-06T07:11:06.215Z,64.57
2022-12-06T07:14:07.645Z,65.35
2022-12-06T07:17:09.235Z,64.97
2022-12-06T07:20:11.042Z,65.01
2022-12-06T07:23:13.415Z,64.29
2022-12-06T07:26:21.320Z,64.19
2022-12-06T07:29:22.805Z,64.18
2022-12-06T07:32:24.222Z,64.33
2022-12-06T07:35:41.964Z,64.34
2022-12-06T07:38:49.574Z,64.39
2022-12-06T07:42:09.670Z,64.00
2022-12-06T07:45:24.317Z,63.94
2022-12-06T07:48:25.792Z,63.76
2022-12-06T07:51:27.217Z,63.52
2022-12-06T07:54:28.952Z,63.52
2022-12-06T07:57:30.655Z,64.09
2022-12-06T08:00:32.169Z,63.40
2022-12-06T08:03:33.579Z,62.50
2022-12-06T08:06:36.213Z,62.78
2022-12-06T08:09:37.701Z,63.81
2022-12-06T08:12:39.434Z,63.33
2022-12-06T08:15:40.931Z,63.22
2022-12-06T08:18:42.592Z,63.65
2022-12-06T08:21:44.226Z,63.48
2022-12-06T08:24:45.650Z,63.19
2022-12-06T08:27:47.126Z,63.06
2022-12-06T08:30:48.705Z,63.16
2022-12-06T08:33:50.348Z,63.11
2022-12-06T08:36:51.912Z,63.11
2022-12-06T08:39:53.463Z,63.45
2022-12-06T08:42:54.906Z,63.63
2022-12-06T08:45:56.405Z,63.53
2022-12-06T08:48:58.138Z,63.90
2022-12-06T08:52:00.428Z,63.72
2022-12-06T08:55:01.915Z,64.18
2022-12-06T08:58:03.345Z,63.23
2022-12-06T09:01:17.502Z,63.24
2022-12-06T09:04:19.039Z,63.12
2022-12-06T09:07:20.552Z,62.67
2022-12-06T09:10:21.958Z,63.64
2022-12-06T09:13:23.436Z,63.39
2022-12-06T09:16:25.125Z,63.80
2022-12-06T09:19:26.619Z,63.04
2022-12-06T09:22:28.044Z,63.23
2022-12-06T09:25:29.464Z,62.64
2022-12-06T09:28:31.414Z,63.01
2022-12-06T09:31:33.096Z,63.20
2022-12-06T09:34:34.569Z,63.39
2022-12-06T09:37:36.096Z,62.88
2022-12-06T09:40:58.603Z,63.31
2022-12-06T09:44:15.969Z,62.31
2022-12-06T09:47:48.002Z,62.47
2022-12-06T09:51:02.545Z,62.94
2022-12-06T09:54:10.575Z,63.20
2022-12-06T09:57:24.879Z,64.47
2022-12-06T10:00:34.062Z,65.51
2022-12-06T10:03:40.310Z,65.97
2022-12-06T10:07:01.055Z,65.62
2022-12-06T10:10:41.093Z,66.12
2022-12-06T10:13:58.002Z,65.82
2022-12-06T10:17:12.110Z,66.38
2022-12-06T10:20:13.728Z,66.32
2022-12-06T10:23:57.292Z,67.48
2022-12-06T10:27:28.326Z,67.79
2022-12-06T10:30:30.527Z,68.41
2022-12-06T10:34:06.406Z,67.67
2022-12-06T10:37:42.227Z,67.79
2022-12-06T10:41:10.389Z,68.23
2022-12-06T10:44:26.890Z,69.35
2022-12-06T10:47:38.549Z,69.31
2022-12-06T10:50:41.944Z,69.71
2022-12-06T10:53:50.395Z,69.81
2022-12-06T10:56:55.335Z,69.02
2022-12-06T11:00:18.235Z,69.75
2022-12-06T11:03:41.129Z,69.54
2022-12-06T11:06:53.175Z,69.60
2022-12-06T11:09:57.503Z,68.78
2022-12-06T11:13:13.970Z,68.69
2022-12-06T11:16:24.408Z,68.15
2022-12-06T11:19:33.408Z,67.98
2022-12-06T11:22:47.579Z,67.42
2022-12-06T11:25:59.673Z,68.43
2022-12-06T11:29:06.717Z,67.53
2022-12-06T11:32:09.042Z,67.35
2022-12-06T11:35:19.192Z,66.67
2022-12-06T11:38:20.804Z,67.22
2022-12-06T11:41:27.450Z,66.64
2022-12-06T11:44:52.039Z,67.34
2022-12-06T11:47:55.832Z,67.51
2022-12-06T11:50:57.271Z,66.72
2022-12-06T11:54:19.224Z,67.30
2022-12-06T11:57:25.729Z,67.67
2022-12-06T12:00:28.065Z,67.14
2022-12-06T12:03:36.810Z,68.09
2022-12-06T12:06:38.308Z,67.54
2022-12-06T12:10:04.361Z,66.72
2022-12-06T12:13:42.559Z,66.40
2022-12-06T12:16:48.395Z,65.74
2022-12-06T12:20:01.030Z,66.26
2022-12-06T12:23:07.223Z,65.91
2022-12-06T12:26:20.731Z,66.09
2022-12-06T12:29:22.303Z,65.93
2022-12-06T12:32:23.791Z,66.04
2022-12-06T12:35:28.264Z,64.13
2022-12-06T12:38:32.394Z,64.86
2022-12-06T12:41:40.487Z,65.06
2022-12-06T12:44:46.137Z,64.68
2022-12-06T12:48:24.161Z,64.46
2022-12-06T12:51:33.565Z,64.91
2022-12-06T12:54:37.661Z,64.83
2022-12-06T12:57:50.295Z,64.79
2022-12-06T13:00:53.078Z,64.60
2022-12-06T13:04:04.005Z,63.96
2022-12-06T13:07:23.169Z,63.93
2022-12-06T13:10:31.471Z,64.37
2022-12-06T13:13:42.757Z,64.11
2022-12-06T13:16:45.864Z,64.63
2022-12-06T13:19:53.199Z,64.41
2022-12-06T13:23:11.886Z,64.85
2022-12-06T13:26:31.687Z,64.04
2022-12-06T13:29:36.952Z,63.85
2022-12-06T13:32:45.079Z,63.18
2022-12-06T13:35:57.166Z,63.80
2022-12-06T13:38:59.198Z,63.54
2022-12-06T13:42:17.745Z,63.93
2022-12-06T13:45:37.495Z,63.81
2022-12-06T13:48:49.935Z,63.48
2022-12-06T13:51:51.702Z,64.13
2022-12-06T13:54:53.128Z,64.71
2022-12-06T13:58:00.515Z,64.85
2022-12-06T14:01:02.147Z,64.94
2022-12-06T14:07:33.848Z,65.65
2022-12-06T14:10:35.345Z,65.78
2022-12-06T14:13:36.824Z,66.03
2022-12-06T14:16:45.569Z,65.60
2022-12-06T14:19:49.578Z,65.94
2022-12-06T14:22:51.585Z,65.38
2022-12-06T14:26:21.910Z,65.84
2022-12-06T14:29:24.818Z,66.13
2022-12-06T14:32:38.050Z,66.21
2022-12-06T14:35:40.134Z,65.69
2022-12-06T14:38:41.621Z,65.59
2022-12-06T14:42:10.107Z,65.82
2022-12-06T14:45:16.430Z,65.83
2022-12-06T14:48:18.782Z,65.91
2022-12-06T14:51:23.436Z,65.46
2022-12-06T14:54:41.432Z,65.28
2022-12-06T14:57:46.966Z,65.10
2022-12-06T15:00:56.709Z,64.69
2022-12-06T15:04:09.194Z,64.96
2022-12-06T15:07:28.831Z,64.81
2022-12-06T15:10:32.172Z,64.57
2022-12-06T15:13:33.663Z,64.95
2022-12-06T15:16:35.155Z,64.77
2022-12-06T15:19:46.310Z,64.48
2022-12-06T15:22:47.747Z,63.38
2022-12-06T15:25:49.269Z,63.73
2022-12-06T15:28:51.337Z,63.36
2022-12-06T15:31:54.789Z,63.30
2022-12-06T15:34:56.225Z,62.49
2022-12-06T15:37:57.622Z,63.18
2022-12-06T15:40:59.101Z,62.40
2022-12-06T15:44:00.548Z,62.40
2022-12-06T15:47:02.037Z,62.61
2022-12-06T15:50:04.295Z,62.01
2022-12-06T15:53:05.765Z,62.01
2022-12-06T15:56:15.168Z,62.11
2022-12-06T15:59:16.820Z,62.99
2022-12-06T16:02:18.755Z,63.69
2022-12-06T16:05:20.274Z,62.76
2022-12-06T16:08:21.742Z,63.16
2022-12-06T16:11:26.867Z,63.42
2022-12-06T16:14:28.305Z,62.93
2022-12-06T16:17:29.817Z,63.08
2022-12-06T16:20:31.315Z,62.83
2022-12-06T16:27:12.615Z,63.06
2022-12-06T16:30:14.518Z,62.79
2022-12-06T16:33:17.999Z,62.85
2022-12-06T16:36:29.890Z,62.87
2022-12-06T16:39:33.871Z,62.79
2022-12-06T16:42:35.350Z,62.87
2022-12-06T16:45:39.243Z,62.88
2022-12-06T16:48:40.688Z,63.58
2022-12-06T16:51:42.283Z,63.10
2022-12-06T16:54:44.224Z,63.22
2022-12-06T16:57:46.133Z,62.95
2022-12-06T17:00:47.752Z,63.13
2022-12-06T17:03:50.948Z,64.63
2022-12-06T17:06:52.401Z,63.64
2022-12-06T17:09:54.050Z,63.39
2022-12-06T17:12:56.742Z,63.57
2022-12-06T17:15:58.219Z,63.39
2022-12-06T17:18:59.711Z,63.57
2022-12-06T17:22:02.339Z,63.41
2022-12-06T17:25:05.026Z,64.08
2022-12-06T17:28:06.566Z,63.38
2022-12-06T17:31:08.894Z,63.25
2022-12-06T17:34:12.411Z,63.15
2022-12-06T17:37:13.962Z,63.12
2022-12-06T17:40:15.554Z,64.06
2022-12-06T17:43:17.051Z,63.81
2022-12-06T17:46:18.676Z,64.03
2022-12-06T17:49:22.261Z,63.87
2022-12-06T17:52:24.210Z,64.27
2022-12-06T17:55:25.710Z,63.97
2022-12-06T17:58:27.152Z,63.98
2022-12-06T18:01:50.936Z,64.13
2022-12-06T18:04:52.617Z,64.54
2022-12-06T18:07:54.160Z,64.24
2022-12-06T18:10:59.674Z,64.06
2022-12-06T18:14:01.966Z,63.78
2022-12-06T18:17:03.904Z,63.62
2022-12-06T18:20:09.018Z,64.27
2022-12-06T18:23:10.489Z,64.59
2022-12-06T18:26:14.445Z,64.80
2022-12-06T18:29:18.886Z,64.55
2022-12-06T18:32:20.373Z,64.36
2022-12-06T18:35:21.785Z,64.26
2022-12-06T18:38:23.262Z,64.24
2022-12-06T18:41:25.616Z,64.69
2022-12-06T18:44:27.062Z,65.00
2022-12-06T18:47:28.588Z,64.57
2022-12-06T18:50:30.014Z,65.04
2022-12-06T18:53:31.478Z,64.58
2022-12-06T18:56:34.087Z,65.08
2022-12-06T18:59:37.639Z,65.48
2022-12-06T19:02:39.147Z,66.36
2022-12-06T19:06:01.785Z,66.78
2022-12-06T19:09:09.481Z,66.65
2022-12-06T19:12:10.979Z,66.78
2022-12-06T19:15:13.979Z,66.23
2022-12-06T19:18:15.462Z,66.57
2022-12-06T19:21:17.707Z,67.02
2022-12-06T19:24:22.806Z,66.14
2022-12-06T19:27:24.227Z,65.53
2022-12-06T19:30:25.691Z,65.79
2022-12-06T19:33:27.626Z,66.65
2022-12-06T19:36:31.314Z,66.37
2022-12-06T19:39:32.789Z,66.21
2022-12-06T19:42:53.774Z,66.33
2022-12-06T19:45:55.270Z,66.23
2022-12-06T19:48:59.228Z,65.70
2022-12-06T19:52:00.843Z,65.71
2022-12-06T19:55:02.285Z,65.72
2022-12-06T19:58:03.752Z,65.34
2022-12-06T20:01:10.420Z,64.89
2022-12-06T20:04:20.425Z,65.13
2022-12-06T20:07:22.010Z,65.53
2022-12-06T20:10:23.455Z,65.28
2022-12-06T20:13:24.877Z,65.70
2022-12-06T20:16:27.009Z,65.46
2022-12-06T20:19:28.503Z,65.79
2022-12-06T20:22:29.984Z,65.27
2022-12-06T20:25:31.452Z,65.73
2022-12-06T20:28:32.974Z,65.35
2022-12-06T20:31:35.609Z,65.24
2022-12-06T20:34:37.841Z,65.52
2022-12-06T20:37:39.392Z,65.63
2022-12-06T20:40:40.905Z,65.49
2022-12-06T20:43:43.328Z,65.32
2022-12-06T20:46:45.291Z,65.11
2022-12-06T20:49:46.798Z,65.41
2022-12-06T20:52:49.225Z,65.49
2022-12-06T20:55:50.717Z,65.55
2022-12-06T20:58:55.134Z,66.12
2022-12-06T21:01:56.634Z,65.62
2022-12-06T21:04:58.169Z,65.30
2022-12-06T21:07:59.669Z,65.32
2022-12-06T21:14:23.406Z,66.26
2022-12-06T21:17:24.839Z,65.70
2022-12-06T21:20:26.250Z,65.26
2022-12-06T21:23:28.269Z,65.68
2022-12-06T21:26:30.831Z,65.80
2022-12-06T21:29:32.231Z,66.05
2022-12-06T21:32:34.330Z,66.44
2022-12-06T21:35:37.068Z,66.04
2022-12-06T21:38:38.870Z,65.52
2022-12-06T21:41:40.447Z,66.23
2022-12-06T21:44:42.070Z,66.14
2022-12-06T21:47:43.668Z,65.72
2022-12-06T21:50:45.180Z,66.39
2022-12-06T21:53:46.645Z,65.79
2022-12-06T21:56:48.101Z,65.66
2022-12-06T21:59:49.625Z,65.66
2022-12-06T22:02:52.275Z,65.87
2022-12-06T22:05:53.736Z,65.64
2022-12-06T22:09:06.192Z,65.63
2022-12-06T22:12:07.924Z,65.73
2022-12-06T22:15:09.778Z,65.24
2022-12-06T22:18:11.302Z,65.57
2022-12-06T22:21:21.000Z,65.84
2022-12-06T22:24:22.872Z,65.64
2022-12-06T22:27:24.353Z,65.63
2022-12-06T22:30:25.922Z,65.62
2022-12-06T22:33:27.314Z,65.83
2022-12-06T22:36:29.602Z,65.87
2022-12-06T22:39:31.002Z,65.73
2022-12-06T22:42:32.577Z,65.76
2022-12-06T22:45:34.047Z,65.59
2022-12-06T22:48:35.576Z,65.48
2022-12-06T22:51:38.373Z,66.24
2022-12-06T22:54:39.817Z,66.31
2022-12-06T22:57:41.226Z,65.48
2022-12-06T23:00:42.767Z,65.47
2022-12-06T23:03:48.774Z,66.28
2022-12-06T23:06:50.288Z,65.84
2022-12-06T23:09:51.756Z,66.46
2022-12-06T23:12:53.194Z,65.95
2022-12-06T23:15:56.735Z,66.62
2022-12-06T23:19:01.007Z,66.75
2022-12-06T23:22:02.497Z,66.48
2022-12-06T23:25:04.190Z,66.72
2022-12-06T23:28:05.609Z,66.73
2022-12-06T23:31:11.360Z,67.40
2022-12-06T23:34:21.994Z,67.87
2022-12-06T23:37:23.442Z,68.17
2022-12-06T23:40:24.946Z,68.88
2022-12-06T23:43:26.377Z,68.74
2022-12-06T23:46:30.613Z,69.05
2022-12-06T23:49:32.118Z,68.84
2022-12-06T23:52:33.911Z,69.02
2022-12-06T23:55:35.825Z,69.42
2022-12-06T23:58:38.418Z,69.41
